Brook Knoll, Indiana
Current Conditions -  °F | °C
As of 5:41 AM on Wednesday 22 Oct 2014 (Local Time) from KBMG Reporting Station
Haze Haze  
Wind Chill:   Ceiling: Unl
Heat Index:   Visibility: 2mi
Dew Point:   Wind: 0mph
Humidity: 100%   Direction: NA
Pressure: 30.25"   Gusts: NA
Location:  38.8737°N, 86.4563°W
Report Text: KBMG 220941Z AUTO 00000KT 2SM BR CLR 02/02 A3025 RMK AO2 VIS 1V5 T00220022 $
Loading
Personal Weather Stations






























Interactive Weather Map
Tropical Storm Tracking
New forecast layout! Learn more

10-Day Weather Forecast

Advertisements
Track Severe Weather on mobile